Barcelona, Spain
Current Conditions -  °F | °C
As of 9:00 PM on Sunday 25 Jan 2015 (Local Time) from LEBL Reporting Station
Clear Clear  
Wind Chill: 10°   Ceiling: Unl
Heat Index: 10°   Visibility: 6mi
Dew Point: -2°   Wind: 5mph
Humidity: 43%   Direction: 300°WNW
Pressure: 30.18"   Gusts: NA
Location:  41.39°N, 2.17°E
Report Text: LEBL 252000Z 30004KT 250V330 CAVOK 10/M02 Q1022 NOSIG
Loading
Personal Weather Stations






























Interactive Weather Map New forecast layout! Learn more

10-Day Weather Forecast

Advertisements
Track Severe Weather on mobile